Terminal Aerodrome Forecast
Issued by NWS

Home | Current Version | Previous Version | Text Only | Print | Product List | Glossary On
Versions: 1 2 3 4 5 6 7 8 9 10 11 12 13 14 15 16 17
000
FTUS43 KBIS 250058 AAA
TAFJMS
TAF AMD
KJMS 250058Z 2501/2524 35014KT P6SM OVC008
      TEMPO 2501/2505 SCT008 OVC014
     FM250500 34008KT P6SM OVC008
     FM251800 33013KT P6SM OVC015=

USA.gov is the U.S. government's official web portal to all federal, state and local government web resources and services.